This is the latest recevied weather packets stored in our database for station/object KI4HRG. If no packets are shown the sender has not sent any weather packets the latest 1 day(s).
| Time | Temp. | Humidity | Pressure | Rain* | Wind** | Luminosity | Snow |
|---|---|---|---|---|---|---|---|
| 1778100171 | 23.33° C | 93% | 1012.1 hPa | 1.78 mm | - | 29 W/m² | - |
| 1778099263 | 23.89° C | 89% | 1011.8 hPa | 0 mm | - | 65 W/m² | - |
| 1778098656 | 23.89° C | 88% | 1012 hPa | 0 mm | - | 18 W/m² | - |
| 1778095012 | 25.56° C | 83% | 1013.1 hPa | 0 mm | - | 123 W/m² | - |
| 1778094708 | 25° C | 83% | 1013.3 hPa | 0 mm | - | 163 W/m² | - |
| 1778094102 | 25° C | 83% | 1013.2 hPa | 0 mm | - | 134 W/m² | - |
| 1778093495 | 25° C | 83% | 1013.4 hPa | 0 mm | - | 157 W/m² | - |
| 1778092890 | 25.56° C | 82% | 1013.2 hPa | 0 mm | - | 265 W/m² | - |
| 1778091677 | 25.56° C | 82% | 1013.3 hPa | 0 mm | - | 195 W/m² | - |
| 1778091375 | 25.56° C | 82% | 1013.4 hPa | 0 mm | - | 292 W/m² | - |
| 1778091072 | 25.56° C | 81% | 1013.5 hPa | 0 mm | - | 276 W/m² | - |
| 1778090465 | 25.56° C | 81% | 1013.5 hPa | 0 mm | - | 152 W/m² | - |
| 1778089252 | 25.56° C | 80% | 1013.7 hPa | 0 mm | - | 267 W/m² | - |
| 1778088950 | 25.56° C | 80% | 1013.6 hPa | 0 mm | - | 234 W/m² | - |
| 1778085613 | 25° C | 79% | 1013.8 hPa | 0 mm | - | 376 W/m² | - |
| 1778084701 | 25.56° C | 78% | 1013.8 hPa | 0 mm | - | 322 W/m² | - |
| 1778084095 | 26.11° C | 76% | 1013.8 hPa | 0 mm | - | 337 W/m² | - |
| 1778083787 | 25.56° C | 77% | 1013.7 hPa | 0 mm | - | 488 W/m² | - |
| 1778083484 | 25.56° C | 78% | 1013.8 hPa | 0 mm | - | 444 W/m² | - |
| 1778082879 | 25° C | 78% | 1013.8 hPa | 0 mm | - | 426 W/m² | - |
| 1778081771 | 25° C | 80% | 1013.8 hPa | 0 mm | - | 411 W/m² | - |
| 1778080258 | 24.44° C | 81% | 1014 hPa | 0 mm | - | 772 W/m² | - |
| 1778077231 | 22.22° C | 87% | 1014.2 hPa | 0 mm | - | 182 W/m² | - |
| 1778076021 | 22.78° C | 87% | 1014 hPa | 0 mm | - | 212 W/m² | - |
| 1778075110 | 21.67° C | 89% | 1014.1 hPa | 0 mm | - | 528 W/m² | - |
* Rain latest hour (hover to see other rain measurements)
** Current wind speed in m/s (hover to see current wind gust speed)